sensor_id;sensor_type;location;lat;lon;timestamp;temperature;humidity
50162;DHT22;36061;48.116;11.612;2022-09-09T00:09:28;16.60;99.90
50162;DHT22;36061;48.116;11.612;2022-09-09T00:12:05;16.60;99.90
50162;DHT22;36061;48.116;11.612;2022-09-09T00:15:07;16.60;99.90
50162;DHT22;36061;48.116;11.612;2022-09-09T00:23:33;16.50;99.90
50162;DHT22;36061;48.116;11.612;2022-09-09T00:28:29;16.40;99.90
50162;DHT22;36061;48.116;11.612;2022-09-09T00:31:13;16.40;99.90
50162;DHT22;36061;48.116;11.612;2022-09-09T00:33:40;16.40;99.90
50162;DHT22;36061;48.116;11.612;2022-09-09T00:36:14;16.40;99.90
50162;DHT22;36061;48.116;11.612;2022-09-09T00:38:55;16.40;99.90
50162;DHT22;36061;48.116;11.612;2022-09-09T00:44:32;16.40;99.90
50162;DHT22;36061;48.116;11.612;2022-09-09T00:52:22;16.40;99.90
50162;DHT22;36061;48.116;11.612;2022-09-09T00:55:03;16.40;99.90
50162;DHT22;36061;48.116;11.612;2022-09-09T00:57:31;16.40;99.90
50162;DHT22;36061;48.116;11.612;2022-09-09T01:03:22;16.40;99.90
50162;DHT22;36061;48.116;11.612;2022-09-09T01:17:26;16.20;99.90
50162;DHT22;36061;48.116;11.612;2022-09-09T01:28:30;15.80;99.90
50162;DHT22;36061;48.116;11.612;2022-09-09T01:31:06;16.10;99.90
50162;DHT22;36061;48.116;11.612;2022-09-09T01:33:38;16.10;99.90
50162;DHT22;36061;48.116;11.612;2022-09-09T01:38:48;16.10;99.90
50162;DHT22;36061;48.116;11.612;2022-09-09T01:41:14;16.10;99.90
50162;DHT22;36061;48.116;11.612;2022-09-09T01:44:03;16.10;99.90
50162;DHT22;36061;48.116;11.612;2022-09-09T01:46:31;16.10;99.90
50162;DHT22;36061;48.116;11.612;2022-09-09T01:48:59;16.10;99.90
50162;DHT22;36061;48.116;11.612;2022-09-09T01:51:26;16.10;99.90
50162;DHT22;36061;48.116;11.612;2022-09-09T01:53:52;16.10;99.90
50162;DHT22;36061;48.116;11.612;2022-09-09T01:59:24;16.10;99.90
50162;DHT22;36061;48.116;11.612;2022-09-09T02:04:48;16.10;99.90
50162;DHT22;36061;48.116;11.612;2022-09-09T02:07:38;16.00;99.90
50162;DHT22;36061;48.116;11.612;2022-09-09T02:11:16;16.00;99.90
50162;DHT22;36061;48.116;11.612;2022-09-09T02:13:17;16.00;99.90
50162;DHT22;36061;48.116;11.612;2022-09-09T02:16:04;15.90;99.90
50162;DHT22;36061;48.116;11.612;2022-09-09T02:18:42;15.90;99.90
50162;DHT22;36061;48.116;11.612;2022-09-09T02:21:12;15.90;99.90
50162;DHT22;36061;48.116;11.612;2022-09-09T02:23:41;15.90;99.90
50162;DHT22;36061;48.116;11.612;2022-09-09T02:26:12;15.90;99.90
50162;DHT22;36061;48.116;11.612;2022-09-09T02:28:41;15.90;99.90
50162;DHT22;36061;48.116;11.612;2022-09-09T02:31:08;15.90;99.90
50162;DHT22;36061;48.116;11.612;2022-09-09T02:33:42;15.90;99.90
50162;DHT22;36061;48.116;11.612;2022-09-09T02:36:11;15.90;99.90
50162;DHT22;36061;48.116;11.612;2022-09-09T02:38:45;15.90;99.90
50162;DHT22;36061;48.116;11.612;2022-09-09T02:41:14;15.90;99.90
50162;DHT22;36061;48.116;11.612;2022-09-09T02:43:39;15.90;99.90
50162;DHT22;36061;48.116;11.612;2022-09-09T02:51:24;15.80;99.90
50162;DHT22;36061;48.116;11.612;2022-09-09T02:54:10;15.80;99.90
50162;DHT22;36061;48.116;11.612;2022-09-09T02:56:49;15.90;99.90
50162;DHT22;36061;48.116;11.612;2022-09-09T02:59:17;15.80;99.90
50162;DHT22;36061;48.116;11.612;2022-09-09T03:01:44;15.80;99.90
50162;DHT22;36061;48.116;11.612;2022-09-09T03:04:10;15.80;99.90
50162;DHT22;36061;48.116;11.612;2022-09-09T03:06:37;15.80;99.90
50162;DHT22;36061;48.116;11.612;2022-09-09T03:09:15;15.80;99.90
50162;DHT22;36061;48.116;11.612;2022-09-09T03:11:41;15.80;99.90
50162;DHT22;36061;48.116;11.612;2022-09-09T03:14:07;15.80;99.90
50162;DHT22;36061;48.116;11.612;2022-09-09T03:16:35;15.80;99.90
50162;DHT22;36061;48.116;11.612;2022-09-09T03:19:01;15.80;99.90
50162;DHT22;36061;48.116;11.612;2022-09-09T03:21:27;15.80;99.90
50162;DHT22;36061;48.116;11.612;2022-09-09T03:23:54;15.80;99.90
50162;DHT22;36061;48.116;11.612;2022-09-09T03:26:20;15.80;99.90
50162;DHT22;36061;48.116;11.612;2022-09-09T03:28:46;15.90;99.90
50162;DHT22;36061;48.116;11.612;2022-09-09T03:31:16;15.90;99.90
50162;DHT22;36061;48.116;11.612;2022-09-09T03:33:42;15.90;99.90
50162;DHT22;36061;48.116;11.612;2022-09-09T03:36:11;15.90;99.90
50162;DHT22;36061;48.116;11.612;2022-09-09T03:38:37;15.90;99.90
50162;DHT22;36061;48.116;11.612;2022-09-09T03:41:03;15.90;99.90
50162;DHT22;36061;48.116;11.612;2022-09-09T03:43:32;15.90;99.90
50162;DHT22;36061;48.116;11.612;2022-09-09T03:45:58;15.90;99.90
50162;DHT22;36061;48.116;11.612;2022-09-09T03:48:25;15.90;99.90
50162;DHT22;36061;48.116;11.612;2022-09-09T03:50:54;15.80;99.90
50162;DHT22;36061;48.116;11.612;2022-09-09T03:53:23;15.80;99.90
50162;DHT22;36061;48.116;11.612;2022-09-09T03:55:52;15.80;99.90
50162;DHT22;36061;48.116;11.612;2022-09-09T03:58:23;15.80;99.90
50162;DHT22;36061;48.116;11.612;2022-09-09T04:00:58;15.80;99.90
50162;DHT22;36061;48.116;11.612;2022-09-09T04:03:26;15.80;99.90
50162;DHT22;36061;48.116;11.612;2022-09-09T04:05:52;15.80;99.90
50162;DHT22;36061;48.116;11.612;2022-09-09T04:08:20;15.80;99.90
50162;DHT22;36061;48.116;11.612;2022-09-09T04:10:48;15.80;99.90
50162;DHT22;36061;48.116;11.612;2022-09-09T04:13:17;15.90;99.90
50162;DHT22;36061;48.116;11.612;2022-09-09T04:15:49;15.90;99.90
50162;DHT22;36061;48.116;11.612;2022-09-09T04:18:15;15.90;99.90
50162;DHT22;36061;48.116;11.612;2022-09-09T04:20:41;15.90;99.90
50162;DHT22;36061;48.116;11.612;2022-09-09T04:23:09;15.90;99.90
50162;DHT22;36061;48.116;11.612;2022-09-09T04:25:35;15.90;99.90
50162;DHT22;36061;48.116;11.612;2022-09-09T04:28:01;15.90;99.90
50162;DHT22;36061;48.116;11.612;2022-09-09T04:30:28;15.80;99.90
50162;DHT22;36061;48.116;11.612;2022-09-09T04:32:54;15.80;99.90
50162;DHT22;36061;48.116;11.612;2022-09-09T04:35:20;15.80;99.90
50162;DHT22;36061;48.116;11.612;2022-09-09T04:37:46;15.80;99.90
50162;DHT22;36061;48.116;11.612;2022-09-09T04:40:13;15.80;99.90
50162;DHT22;36061;48.116;11.612;2022-09-09T04:42:40;15.80;99.90
50162;DHT22;36061;48.116;11.612;2022-09-09T04:45:10;15.80;99.90
50162;DHT22;36061;48.116;11.612;2022-09-09T04:47:37;15.70;99.90
50162;DHT22;36061;48.116;11.612;2022-09-09T04:50:03;15.70;99.90
50162;DHT22;36061;48.116;11.612;2022-09-09T04:52:29;15.70;99.90
50162;DHT22;36061;48.116;11.612;2022-09-09T04:54:55;15.70;99.90
50162;DHT22;36061;48.116;11.612;2022-09-09T04:57:21;15.70;99.90
50162;DHT22;36061;48.116;11.612;2022-09-09T04:59:47;15.70;99.90
50162;DHT22;36061;48.116;11.612;2022-09-09T05:02:14;15.70;99.90
50162;DHT22;36061;48.116;11.612;2022-09-09T05:04:39;15.70;99.90
50162;DHT22;36061;48.116;11.612;2022-09-09T05:07:06;15.70;99.90
50162;DHT22;36061;48.116;11.612;2022-09-09T05:09:32;15.60;99.90
50162;DHT22;36061;48.116;11.612;2022-09-09T05:11:59;15.60;99.90
50162;DHT22;36061;48.116;11.612;2022-09-09T05:14:29;15.70;99.90
50162;DHT22;36061;48.116;11.612;2022-09-09T05:16:55;15.70;99.90
50162;DHT22;36061;48.116;11.612;2022-09-09T05:19:22;15.70;99.90
50162;DHT22;36061;48.116;11.612;2022-09-09T05:21:48;15.70;99.90
50162;DHT22;36061;48.116;11.612;2022-09-09T05:24:19;15.70;99.90
50162;DHT22;36061;48.116;11.612;2022-09-09T05:26:47;15.70;99.90
50162;DHT22;36061;48.116;11.612;2022-09-09T05:29:14;15.70;99.90
50162;DHT22;36061;48.116;11.612;2022-09-09T05:31:40;15.70;99.90
50162;DHT22;36061;48.116;11.612;2022-09-09T05:34:10;15.70;99.90
50162;DHT22;36061;48.116;11.612;2022-09-09T05:36:36;15.70;99.90
50162;DHT22;36061;48.116;11.612;2022-09-09T05:39:01;15.70;99.90
50162;DHT22;36061;48.116;11.612;2022-09-09T05:41:29;15.70;99.90
50162;DHT22;36061;48.116;11.612;2022-09-09T05:43:57;15.70;99.90
50162;DHT22;36061;48.116;11.612;2022-09-09T05:46:24;15.70;99.90
50162;DHT22;36061;48.116;11.612;2022-09-09T05:48:52;15.80;99.90
50162;DHT22;36061;48.116;11.612;2022-09-09T05:51:25;15.80;99.90
50162;DHT22;36061;48.116;11.612;2022-09-09T05:53:53;15.80;99.90
50162;DHT22;36061;48.116;11.612;2022-09-09T05:56:29;15.80;99.90
50162;DHT22;36061;48.116;11.612;2022-09-09T05:58:56;15.80;99.90
50162;DHT22;36061;48.116;11.612;2022-09-09T06:01:23;15.80;99.90
50162;DHT22;36061;48.116;11.612;2022-09-09T06:03:51;15.80;99.90
50162;DHT22;36061;48.116;11.612;2022-09-09T06:06:24;15.80;99.90
50162;DHT22;36061;48.116;11.612;2022-09-09T06:08:54;15.90;99.90
50162;DHT22;36061;48.116;11.612;2022-09-09T06:11:25;15.90;99.90
50162;DHT22;36061;48.116;11.612;2022-09-09T06:13:52;15.90;99.90
50162;DHT22;36061;48.116;11.612;2022-09-09T06:16:22;16.00;99.90
50162;DHT22;36061;48.116;11.612;2022-09-09T06:18:53;16.00;99.90
50162;DHT22;36061;48.116;11.612;2022-09-09T06:23:47;16.00;99.90
50162;DHT22;36061;48.116;11.612;2022-09-09T06:26:21;16.00;99.90
50162;DHT22;36061;48.116;11.612;2022-09-09T06:28:50;16.00;99.90
50162;DHT22;36061;48.116;11.612;2022-09-09T06:31:20;16.10;99.90
50162;DHT22;36061;48.116;11.612;2022-09-09T06:33:49;16.00;99.90
50162;DHT22;36061;48.116;11.612;2022-09-09T06:36:17;16.10;99.90
50162;DHT22;36061;48.116;11.612;2022-09-09T06:38:44;16.10;99.90
50162;DHT22;36061;48.116;11.612;2022-09-09T06:41:13;16.10;99.90
50162;DHT22;36061;48.116;11.612;2022-09-09T06:43:40;16.10;99.90
50162;DHT22;36061;48.116;11.612;2022-09-09T06:46:10;16.10;99.90
50162;DHT22;36061;48.116;11.612;2022-09-09T06:48:36;16.10;99.90
50162;DHT22;36061;48.116;11.612;2022-09-09T06:51:07;16.10;99.90
50162;DHT22;36061;48.116;11.612;2022-09-09T06:53:35;16.20;99.90
50162;DHT22;36061;48.116;11.612;2022-09-09T06:58:44;16.30;99.90
50162;DHT22;36061;48.116;11.612;2022-09-09T07:01:15;16.30;99.90
50162;DHT22;36061;48.116;11.612;2022-09-09T07:03:42;16.40;99.90
50162;DHT22;36061;48.116;11.612;2022-09-09T07:06:35;16.40;99.90
50162;DHT22;36061;48.116;11.612;2022-09-09T07:09:06;16.40;99.90
50162;DHT22;36061;48.116;11.612;2022-09-09T07:11:43;16.50;99.90
50162;DHT22;36061;48.116;11.612;2022-09-09T07:14:10;16.50;99.90
50162;DHT22;36061;48.116;11.612;2022-09-09T07:16:41;16.60;99.90
50162;DHT22;36061;48.116;11.612;2022-09-09T07:19:07;16.60;99.90
50162;DHT22;36061;48.116;11.612;2022-09-09T07:21:33;16.60;99.90
50162;DHT22;36061;48.116;11.612;2022-09-09T07:24:00;16.60;99.90
50162;DHT22;36061;48.116;11.612;2022-09-09T07:26:30;16.60;99.90
50162;DHT22;36061;48.116;11.612;2022-09-09T07:29:02;16.70;99.90
50162;DHT22;36061;48.116;11.612;2022-09-09T07:31:31;16.80;99.90
50162;DHT22;36061;48.116;11.612;2022-09-09T07:33:58;16.80;99.90
50162;DHT22;36061;48.116;11.612;2022-09-09T07:36:27;16.90;99.90
50162;DHT22;36061;48.116;11.612;2022-09-09T07:39:00;16.90;99.90
50162;DHT22;36061;48.116;11.612;2022-09-09T07:41:29;16.90;99.90
50162;DHT22;36061;48.116;11.612;2022-09-09T07:43:55;17.00;99.90
50162;DHT22;36061;48.116;11.612;2022-09-09T07:46:24;17.00;99.90
50162;DHT22;36061;48.116;11.612;2022-09-09T07:48:55;17.00;99.90
50162;DHT22;36061;48.116;11.612;2022-09-09T07:51:37;17.10;99.90
50162;DHT22;36061;48.116;11.612;2022-09-09T07:54:06;17.10;99.90
50162;DHT22;36061;48.116;11.612;2022-09-09T07:56:33;17.20;99.90
50162;DHT22;36061;48.116;11.612;2022-09-09T07:59:00;17.30;99.90
50162;DHT22;36061;48.116;11.612;2022-09-09T08:01:38;17.40;99.90
50162;DHT22;36061;48.116;11.612;2022-09-09T08:04:09;17.40;99.90
50162;DHT22;36061;48.116;11.612;2022-09-09T08:06:40;17.50;99.90
50162;DHT22;36061;48.116;11.612;2022-09-09T08:09:09;17.60;99.90
50162;DHT22;36061;48.116;11.612;2022-09-09T08:11:37;17.70;99.90
50162;DHT22;36061;48.116;11.612;2022-09-09T08:14:03;17.80;99.90
50162;DHT22;36061;48.116;11.612;2022-09-09T08:16:32;17.80;99.90
50162;DHT22;36061;48.116;11.612;2022-09-09T08:18:59;17.70;99.90
50162;DHT22;36061;48.116;11.612;2022-09-09T08:21:27;17.60;99.90
50162;DHT22;36061;48.116;11.612;2022-09-09T08:23:56;17.50;99.90
50162;DHT22;36061;48.116;11.612;2022-09-09T08:26:24;17.50;99.90
50162;DHT22;36061;48.116;11.612;2022-09-09T08:28:54;17.50;99.90
50162;DHT22;36061;48.116;11.612;2022-09-09T08:31:26;17.50;99.90
50162;DHT22;36061;48.116;11.612;2022-09-09T08:33:55;17.50;99.90
50162;DHT22;36061;48.116;11.612;2022-09-09T08:36:23;17.50;99.90
50162;DHT22;36061;48.116;11.612;2022-09-09T08:38:55;17.60;99.90
50162;DHT22;36061;48.116;11.612;2022-09-09T08:55:30;17.60;99.90
50162;DHT22;36061;48.116;11.612;2022-09-09T08:58:06;17.60;99.90
50162;DHT22;36061;48.116;11.612;2022-09-09T09:00:48;17.60;99.90
50162;DHT22;36061;48.116;11.612;2022-09-09T09:09:06;17.60;99.90
50162;DHT22;36061;48.116;11.612;2022-09-09T09:11:41;17.60;99.90
50162;DHT22;36061;48.116;11.612;2022-09-09T09:14:10;17.60;99.90
50162;DHT22;36061;48.116;11.612;2022-09-09T09:19:16;17.60;99.90
50162;DHT22;36061;48.116;11.612;2022-09-09T09:22:30;17.70;99.90
50162;DHT22;36061;48.116;11.612;2022-09-09T09:27:25;17.80;99.90
50162;DHT22;36061;48.116;11.612;2022-09-09T09:29:56;17.80;99.90
50162;DHT22;36061;48.116;11.612;2022-09-09T09:32:24;17.90;99.90
50162;DHT22;36061;48.116;11.612;2022-09-09T09:34:55;18.10;99.90
50162;DHT22;36061;48.116;11.612;2022-09-09T09:37:32;18.10;99.90
50162;DHT22;36061;48.116;11.612;2022-09-09T09:40:12;18.20;99.90
50162;DHT22;36061;48.116;11.612;2022-09-09T09:43:16;18.20;99.90
50162;DHT22;36061;48.116;11.612;2022-09-09T09:45:42;18.20;99.90
50162;DHT22;36061;48.116;11.612;2022-09-09T09:48:12;18.20;99.90
50162;DHT22;36061;48.116;11.612;2022-09-09T09:51:01;18.10;99.90
50162;DHT22;36061;48.116;11.612;2022-09-09T09:53:33;18.10;99.90
50162;DHT22;36061;48.116;11.612;2022-09-09T09:56:01;18.00;99.90
50162;DHT22;36061;48.116;11.612;2022-09-09T09:58:31;18.00;99.90
50162;DHT22;36061;48.116;11.612;2022-09-09T10:01:00;18.00;99.90
50162;DHT22;36061;48.116;11.612;2022-09-09T10:03:33;17.90;99.90
50162;DHT22;36061;48.116;11.612;2022-09-09T10:06:05;18.00;99.90
50162;DHT22;36061;48.116;11.612;2022-09-09T10:08:34;18.00;99.90
50162;DHT22;36061;48.116;11.612;2022-09-09T10:11:23;18.00;99.90
50162;DHT22;36061;48.116;11.612;2022-09-09T10:14:20;18.00;99.90
50162;DHT22;36061;48.116;11.612;2022-09-09T10:19:34;18.00;99.90
50162;DHT22;36061;48.116;11.612;2022-09-09T10:22:25;18.10;99.90
50162;DHT22;36061;48.116;11.612;2022-09-09T10:28:10;18.10;99.90
50162;DHT22;36061;48.116;11.612;2022-09-09T10:36:20;17.80;99.90
50162;DHT22;36061;48.116;11.612;2022-09-09T10:38:52;17.80;99.90
50162;DHT22;36061;48.116;11.612;2022-09-09T10:41:20;17.80;99.90
50162;DHT22;36061;48.116;11.612;2022-09-09T10:44:04;17.80;99.90
50162;DHT22;36061;48.116;11.612;2022-09-09T10:51:33;17.90;99.90
50162;DHT22;36061;48.116;11.612;2022-09-09T10:54:25;17.80;99.90
50162;DHT22;36061;48.116;11.612;2022-09-09T10:57:02;17.90;99.90
50162;DHT22;36061;48.116;11.612;2022-09-09T10:59:33;18.00;99.90
50162;DHT22;36061;48.116;11.612;2022-09-09T11:02:18;18.10;99.90
50162;DHT22;36061;48.116;11.612;2022-09-09T11:05:03;18.00;99.90
50162;DHT22;36061;48.116;11.612;2022-09-09T11:07:41;18.10;99.90
50162;DHT22;36061;48.116;11.612;2022-09-09T11:10:29;18.10;99.90
50162;DHT22;36061;48.116;11.612;2022-09-09T11:13:03;18.10;99.90
50162;DHT22;36061;48.116;11.612;2022-09-09T11:15:44;18.20;99.90
50162;DHT22;36061;48.116;11.612;2022-09-09T11:18:15;18.40;99.90
50162;DHT22;36061;48.116;11.612;2022-09-09T11:20:46;18.50;99.90
50162;DHT22;36061;48.116;11.612;2022-09-09T11:23:24;18.50;99.90
50162;DHT22;36061;48.116;11.612;2022-09-09T11:25:59;18.50;99.90
50162;DHT22;36061;48.116;11.612;2022-09-09T11:38:56;18.70;99.90
50162;DHT22;36061;48.116;11.612;2022-09-09T11:41:34;18.70;99.90
50162;DHT22;36061;48.116;11.612;2022-09-09T11:44:12;18.70;99.90
50162;DHT22;36061;48.116;11.612;2022-09-09T11:46:43;18.70;99.90
50162;DHT22;36061;48.116;11.612;2022-09-09T11:49:29;18.70;99.90
50162;DHT22;36061;48.116;11.612;2022-09-09T11:51:57;18.80;99.90
50162;DHT22;36061;48.116;11.612;2022-09-09T11:56:54;18.80;99.90
50162;DHT22;36061;48.116;11.612;2022-09-09T11:59:30;18.90;99.90
50162;DHT22;36061;48.116;11.612;2022-09-09T12:04:54;18.90;99.90
50162;DHT22;36061;48.116;11.612;2022-09-09T12:12:37;19.00;99.90
50162;DHT22;36061;48.116;11.612;2022-09-09T12:17:45;19.00;99.90
50162;DHT22;36061;48.116;11.612;2022-09-09T12:20:20;19.10;99.90
50162;DHT22;36061;48.116;11.612;2022-09-09T12:32:00;19.30;99.90
50162;DHT22;36061;48.116;11.612;2022-09-09T12:34:41;19.30;99.90
50162;DHT22;36061;48.116;11.612;2022-09-09T12:38:01;19.30;99.90
50162;DHT22;36061;48.116;11.612;2022-09-09T12:40:31;19.40;99.90
50162;DHT22;36061;48.116;11.612;2022-09-09T12:42:58;19.50;99.90
50162;DHT22;36061;48.116;11.612;2022-09-09T12:45:31;19.60;99.90
50162;DHT22;36061;48.116;11.612;2022-09-09T12:48:05;19.60;99.90
50162;DHT22;36061;48.116;11.612;2022-09-09T12:50:34;19.60;99.90
50162;DHT22;36061;48.116;11.612;2022-09-09T12:53:06;19.60;99.90
50162;DHT22;36061;48.116;11.612;2022-09-09T12:55:36;19.60;99.90
50162;DHT22;36061;48.116;11.612;2022-09-09T12:58:04;19.70;99.90
50162;DHT22;36061;48.116;11.612;2022-09-09T13:00:32;19.60;99.90
50162;DHT22;36061;48.116;11.612;2022-09-09T13:03:00;19.60;99.90
50162;DHT22;36061;48.116;11.612;2022-09-09T13:05:36;19.70;99.90
50162;DHT22;36061;48.116;11.612;2022-09-09T13:08:10;19.70;99.90
50162;DHT22;36061;48.116;11.612;2022-09-09T13:13:13;19.70;99.90
50162;DHT22;36061;48.116;11.612;2022-09-09T13:15:39;19.60;99.90
50162;DHT22;36061;48.116;11.612;2022-09-09T13:18:11;19.60;99.90
50162;DHT22;36061;48.116;11.612;2022-09-09T13:20:37;19.60;99.90
50162;DHT22;36061;48.116;11.612;2022-09-09T13:23:03;19.50;99.90
50162;DHT22;36061;48.116;11.612;2022-09-09T13:25:29;19.50;99.90
50162;DHT22;36061;48.116;11.612;2022-09-09T13:28:03;19.50;99.90
50162;DHT22;36061;48.116;11.612;2022-09-09T13:35:58;19.60;99.90
50162;DHT22;36061;48.116;11.612;2022-09-09T13:38:25;19.60;99.90
50162;DHT22;36061;48.116;11.612;2022-09-09T13:40:59;19.60;99.90
50162;DHT22;36061;48.116;11.612;2022-09-09T13:43:28;19.60;99.90
50162;DHT22;36061;48.116;11.612;2022-09-09T13:51:42;19.40;99.90
50162;DHT22;36061;48.116;11.612;2022-09-09T13:54:12;19.40;99.90
50162;DHT22;36061;48.116;11.612;2022-09-09T13:56:39;19.40;99.90
50162;DHT22;36061;48.116;11.612;2022-09-09T13:59:10;19.30;99.90
50162;DHT22;36061;48.116;11.612;2022-09-09T14:01:36;19.20;99.90
50162;DHT22;36061;48.116;11.612;2022-09-09T14:04:03;19.20;99.90
50162;DHT22;36061;48.116;11.612;2022-09-09T14:06:29;19.20;99.90
50162;DHT22;36061;48.116;11.612;2022-09-09T14:08:55;19.20;99.90
50162;DHT22;36061;48.116;11.612;2022-09-09T14:11:21;19.10;99.90
50162;DHT22;36061;48.116;11.612;2022-09-09T14:13:47;19.00;99.90
50162;DHT22;36061;48.116;11.612;2022-09-09T14:16:16;19.00;99.90
50162;DHT22;36061;48.116;11.612;2022-09-09T14:18:43;18.90;99.90
50162;DHT22;36061;48.116;11.612;2022-09-09T14:21:10;18.90;99.90
50162;DHT22;36061;48.116;11.612;2022-09-09T14:23:36;18.90;99.90
50162;DHT22;36061;48.116;11.612;2022-09-09T14:26:05;18.90;99.90
50162;DHT22;36061;48.116;11.612;2022-09-09T14:28:31;18.90;99.90
50162;DHT22;36061;48.116;11.612;2022-09-09T14:30:59;18.90;99.90
50162;DHT22;36061;48.116;11.612;2022-09-09T14:33:26;18.90;99.90
50162;DHT22;36061;48.116;11.612;2022-09-09T14:36:02;18.90;99.90
50162;DHT22;36061;48.116;11.612;2022-09-09T14:38:36;19.00;99.90
50162;DHT22;36061;48.116;11.612;2022-09-09T14:41:06;18.90;99.90
50162;DHT22;36061;48.116;11.612;2022-09-09T14:43:32;18.90;99.90
50162;DHT22;36061;48.116;11.612;2022-09-09T14:46:08;19.00;99.90
50162;DHT22;36061;48.116;11.612;2022-09-09T14:48:34;18.90;99.90
50162;DHT22;36061;48.116;11.612;2022-09-09T14:51:16;18.80;99.90
50162;DHT22;36061;48.116;11.612;2022-09-09T14:53:43;18.80;99.90
50162;DHT22;36061;48.116;11.612;2022-09-09T14:56:13;18.80;99.90
50162;DHT22;36061;48.116;11.612;2022-09-09T14:58:39;18.70;99.90
50162;DHT22;36061;48.116;11.612;2022-09-09T15:01:07;18.80;99.90
50162;DHT22;36061;48.116;11.612;2022-09-09T15:03:33;18.70;99.90
50162;DHT22;36061;48.116;11.612;2022-09-09T15:06:08;18.70;99.90
50162;DHT22;36061;48.116;11.612;2022-09-09T15:08:35;18.70;99.90
50162;DHT22;36061;48.116;11.612;2022-09-09T15:11:02;18.70;99.90
50162;DHT22;36061;48.116;11.612;2022-09-09T15:13:28;18.70;99.90
50162;DHT22;36061;48.116;11.612;2022-09-09T15:15:54;18.70;99.90
50162;DHT22;36061;48.116;11.612;2022-09-09T15:18:21;18.60;99.90
50162;DHT22;36061;48.116;11.612;2022-09-09T15:20:46;18.60;99.90
50162;DHT22;36061;48.116;11.612;2022-09-09T15:23:14;18.70;99.90
50162;DHT22;36061;48.116;11.612;2022-09-09T15:25:53;18.70;99.90
50162;DHT22;36061;48.116;11.612;2022-09-09T15:28:20;18.60;99.90
50162;DHT22;36061;48.116;11.612;2022-09-09T15:30:49;18.60;99.90
50162;DHT22;36061;48.116;11.612;2022-09-09T15:33:16;18.60;99.90
50162;DHT22;36061;48.116;11.612;2022-09-09T15:35:41;18.60;99.90
50162;DHT22;36061;48.116;11.612;2022-09-09T15:38:07;18.50;99.90
50162;DHT22;36061;48.116;11.612;2022-09-09T15:40:33;18.50;99.90
50162;DHT22;36061;48.116;11.612;2022-09-09T15:42:59;18.50;99.90
50162;DHT22;36061;48.116;11.612;2022-09-09T15:45:25;18.50;99.90
50162;DHT22;36061;48.116;11.612;2022-09-09T15:47:52;18.50;99.90
50162;DHT22;36061;48.116;11.612;2022-09-09T15:50:18;18.40;99.90
50162;DHT22;36061;48.116;11.612;2022-09-09T15:52:44;18.40;99.90
50162;DHT22;36061;48.116;11.612;2022-09-09T15:55:10;18.30;99.90
50162;DHT22;36061;48.116;11.612;2022-09-09T15:57:36;18.40;99.90
50162;DHT22;36061;48.116;11.612;2022-09-09T16:00:03;18.40;99.90
50162;DHT22;36061;48.116;11.612;2022-09-09T16:02:30;18.50;99.90
50162;DHT22;36061;48.116;11.612;2022-09-09T16:04:56;18.50;99.90
50162;DHT22;36061;48.116;11.612;2022-09-09T16:07:23;18.60;99.90
50162;DHT22;36061;48.116;11.612;2022-09-09T16:09:48;18.60;99.90
50162;DHT22;36061;48.116;11.612;2022-09-09T16:12:16;18.60;99.90
50162;DHT22;36061;48.116;11.612;2022-09-09T16:14:42;18.60;99.90
50162;DHT22;36061;48.116;11.612;2022-09-09T16:17:08;18.60;99.90
50162;DHT22;36061;48.116;11.612;2022-09-09T16:19:34;18.60;99.90
50162;DHT22;36061;48.116;11.612;2022-09-09T16:22:00;18.50;99.90
50162;DHT22;36061;48.116;11.612;2022-09-09T16:24:26;18.50;99.90
50162;DHT22;36061;48.116;11.612;2022-09-09T16:26:54;18.40;99.90
50162;DHT22;36061;48.116;11.612;2022-09-09T16:29:21;18.40;99.90
50162;DHT22;36061;48.116;11.612;2022-09-09T16:31:48;18.40;99.90
50162;DHT22;36061;48.116;11.612;2022-09-09T16:34:16;18.40;99.90
50162;DHT22;36061;48.116;11.612;2022-09-09T16:36:43;18.50;99.90
50162;DHT22;36061;48.116;11.612;2022-09-09T16:39:12;18.50;99.90
50162;DHT22;36061;48.116;11.612;2022-09-09T16:41:39;18.50;99.90
50162;DHT22;36061;48.116;11.612;2022-09-09T16:44:07;18.60;99.90
50162;DHT22;36061;48.116;11.612;2022-09-09T16:46:35;18.50;99.90
50162;DHT22;36061;48.116;11.612;2022-09-09T16:49:03;18.50;99.90
50162;DHT22;36061;48.116;11.612;2022-09-09T16:51:38;18.50;99.90
50162;DHT22;36061;48.116;11.612;2022-09-09T16:54:06;18.40;99.90
50162;DHT22;36061;48.116;11.612;2022-09-09T16:56:34;18.40;99.90
50162;DHT22;36061;48.116;11.612;2022-09-09T16:59:05;18.40;99.90
50162;DHT22;36061;48.116;11.612;2022-09-09T17:01:33;18.40;99.90
50162;DHT22;36061;48.116;11.612;2022-09-09T17:04:02;18.30;99.90
50162;DHT22;36061;48.116;11.612;2022-09-09T17:06:29;18.30;99.90
50162;DHT22;36061;48.116;11.612;2022-09-09T17:09:00;18.20;99.90
50162;DHT22;36061;48.116;11.612;2022-09-09T17:11:27;18.20;99.90
50162;DHT22;36061;48.116;11.612;2022-09-09T17:13:53;18.20;99.90
50162;DHT22;36061;48.116;11.612;2022-09-09T17:16:21;18.10;99.90
50162;DHT22;36061;48.116;11.612;2022-09-09T17:18:51;18.10;99.90
50162;DHT22;36061;48.116;11.612;2022-09-09T17:21:19;18.00;99.90
50162;DHT22;36061;48.116;11.612;2022-09-09T17:23:46;18.00;99.90
50162;DHT22;36061;48.116;11.612;2022-09-09T17:26:14;17.90;99.90
50162;DHT22;36061;48.116;11.612;2022-09-09T17:28:41;17.90;99.90
50162;DHT22;36061;48.116;11.612;2022-09-09T17:31:09;17.80;99.90
50162;DHT22;36061;48.116;11.612;2022-09-09T17:33:38;17.80;99.90
50162;DHT22;36061;48.116;11.612;2022-09-09T17:36:12;17.70;99.90
50162;DHT22;36061;48.116;11.612;2022-09-09T17:38:40;17.70;99.90
50162;DHT22;36061;48.116;11.612;2022-09-09T17:41:17;17.70;99.90
50162;DHT22;36061;48.116;11.612;2022-09-09T17:43:43;17.60;99.90
50162;DHT22;36061;48.116;11.612;2022-09-09T17:48:45;17.50;99.90
50162;DHT22;36061;48.116;11.612;2022-09-09T17:51:14;17.50;99.90
50162;DHT22;36061;48.116;11.612;2022-09-09T17:53:45;17.40;99.90
50162;DHT22;36061;48.116;11.612;2022-09-09T17:56:14;17.40;99.90
50162;DHT22;36061;48.116;11.612;2022-09-09T17:58:41;17.30;99.90
50162;DHT22;36061;48.116;11.612;2022-09-09T18:01:19;17.30;99.90
50162;DHT22;36061;48.116;11.612;2022-09-09T18:03:47;17.20;99.90
50162;DHT22;36061;48.116;11.612;2022-09-09T18:06:19;17.20;99.90
50162;DHT22;36061;48.116;11.612;2022-09-09T18:08:54;17.20;99.90
50162;DHT22;36061;48.116;11.612;2022-09-09T18:11:22;17.20;99.90
50162;DHT22;36061;48.116;11.612;2022-09-09T18:13:50;17.10;99.90